sensor_id;sensor_type;location;lat;lon;timestamp;temperature;humidity
42245;DHT22;27912;51.828;5.688;2023-04-24T00:00:22;9.80;99.90
42245;DHT22;27912;51.828;5.688;2023-04-24T00:02:47;9.80;99.90
42245;DHT22;27912;51.828;5.688;2023-04-24T00:05:14;9.70;99.90
42245;DHT22;27912;51.828;5.688;2023-04-24T00:07:41;9.70;99.90
42245;DHT22;27912;51.828;5.688;2023-04-24T00:10:07;9.70;99.90
42245;DHT22;27912;51.828;5.688;2023-04-24T00:12:33;9.70;99.90
42245;DHT22;27912;51.828;5.688;2023-04-24T00:14:59;9.70;99.90
42245;DHT22;27912;51.828;5.688;2023-04-24T00:17:25;9.70;99.90
42245;DHT22;27912;51.828;5.688;2023-04-24T00:19:50;9.70;99.90
42245;DHT22;27912;51.828;5.688;2023-04-24T00:22:17;9.70;99.90
42245;DHT22;27912;51.828;5.688;2023-04-24T00:24:43;9.60;99.90
42245;DHT22;27912;51.828;5.688;2023-04-24T00:27:08;9.60;99.90
42245;DHT22;27912;51.828;5.688;2023-04-24T00:29:34;9.60;99.90
42245;DHT22;27912;51.828;5.688;2023-04-24T00:31:59;9.60;99.90
42245;DHT22;27912;51.828;5.688;2023-04-24T00:34:25;9.60;99.90
42245;DHT22;27912;51.828;5.688;2023-04-24T00:36:51;9.60;99.90
42245;DHT22;27912;51.828;5.688;2023-04-24T00:39:18;9.70;99.90
42245;DHT22;27912;51.828;5.688;2023-04-24T00:41:44;9.70;99.90
42245;DHT22;27912;51.828;5.688;2023-04-24T00:44:10;9.70;99.90
42245;DHT22;27912;51.828;5.688;2023-04-24T00:46:36;9.80;99.90
42245;DHT22;27912;51.828;5.688;2023-04-24T00:49:02;9.80;99.90
42245;DHT22;27912;51.828;5.688;2023-04-24T00:51:28;9.80;99.90
42245;DHT22;27912;51.828;5.688;2023-04-24T00:53:53;9.80;99.90
42245;DHT22;27912;51.828;5.688;2023-04-24T00:56:19;9.80;99.90
42245;DHT22;27912;51.828;5.688;2023-04-24T00:58:45;9.90;99.90
42245;DHT22;27912;51.828;5.688;2023-04-24T01:01:10;9.80;99.90
42245;DHT22;27912;51.828;5.688;2023-04-24T01:03:37;9.90;99.90
42245;DHT22;27912;51.828;5.688;2023-04-24T01:06:04;9.90;99.90
42245;DHT22;27912;51.828;5.688;2023-04-24T01:08:30;9.90;99.90
42245;DHT22;27912;51.828;5.688;2023-04-24T01:10:57;9.90;99.90
42245;DHT22;27912;51.828;5.688;2023-04-24T01:13:23;9.90;99.90
42245;DHT22;27912;51.828;5.688;2023-04-24T01:15:49;9.90;99.90
42245;DHT22;27912;51.828;5.688;2023-04-24T01:18:15;9.90;99.90
42245;DHT22;27912;51.828;5.688;2023-04-24T01:20:41;9.90;99.90
42245;DHT22;27912;51.828;5.688;2023-04-24T01:23:09;9.90;99.90
42245;DHT22;27912;51.828;5.688;2023-04-24T01:25:34;9.90;99.90
42245;DHT22;27912;51.828;5.688;2023-04-24T01:28:00;9.90;99.90
42245;DHT22;27912;51.828;5.688;2023-04-24T01:30:27;9.90;99.90
42245;DHT22;27912;51.828;5.688;2023-04-24T01:32:53;9.90;99.90
42245;DHT22;27912;51.828;5.688;2023-04-24T01:35:19;10.00;99.90
42245;DHT22;27912;51.828;5.688;2023-04-24T01:37:45;9.90;99.90
42245;DHT22;27912;51.828;5.688;2023-04-24T01:40:11;10.00;99.90
42245;DHT22;27912;51.828;5.688;2023-04-24T01:42:37;9.90;99.90
42245;DHT22;27912;51.828;5.688;2023-04-24T01:45:04;9.90;99.90
42245;DHT22;27912;51.828;5.688;2023-04-24T01:47:31;10.00;99.90
42245;DHT22;27912;51.828;5.688;2023-04-24T01:49:57;9.90;99.90
42245;DHT22;27912;51.828;5.688;2023-04-24T01:52:23;10.00;99.90
42245;DHT22;27912;51.828;5.688;2023-04-24T01:54:49;9.90;99.90
42245;DHT22;27912;51.828;5.688;2023-04-24T01:57:14;9.90;99.90
42245;DHT22;27912;51.828;5.688;2023-04-24T01:59:41;9.90;99.90
42245;DHT22;27912;51.828;5.688;2023-04-24T02:02:08;9.90;99.90
42245;DHT22;27912;51.828;5.688;2023-04-24T02:04:33;9.90;99.90
42245;DHT22;27912;51.828;5.688;2023-04-24T02:06:59;9.90;99.90
42245;DHT22;27912;51.828;5.688;2023-04-24T02:09:24;9.90;99.90
42245;DHT22;27912;51.828;5.688;2023-04-24T02:11:50;9.80;99.90
42245;DHT22;27912;51.828;5.688;2023-04-24T02:14:16;9.80;99.90
42245;DHT22;27912;51.828;5.688;2023-04-24T02:16:41;9.80;99.90
42245;DHT22;27912;51.828;5.688;2023-04-24T02:19:07;9.80;99.90
42245;DHT22;27912;51.828;5.688;2023-04-24T02:21:33;9.80;99.90
42245;DHT22;27912;51.828;5.688;2023-04-24T02:23:59;9.80;99.90
42245;DHT22;27912;51.828;5.688;2023-04-24T02:26:24;9.80;99.90
42245;DHT22;27912;51.828;5.688;2023-04-24T02:28:50;9.80;99.90
42245;DHT22;27912;51.828;5.688;2023-04-24T02:31:16;9.90;99.90
42245;DHT22;27912;51.828;5.688;2023-04-24T02:33:41;9.80;99.90
42245;DHT22;27912;51.828;5.688;2023-04-24T02:36:07;9.80;99.90
42245;DHT22;27912;51.828;5.688;2023-04-24T02:38:32;9.80;99.90
42245;DHT22;27912;51.828;5.688;2023-04-24T02:40:58;9.80;99.90
42245;DHT22;27912;51.828;5.688;2023-04-24T02:43:23;9.80;99.90
42245;DHT22;27912;51.828;5.688;2023-04-24T02:45:49;9.80;99.90
42245;DHT22;27912;51.828;5.688;2023-04-24T02:48:15;9.80;99.90
42245;DHT22;27912;51.828;5.688;2023-04-24T02:50:40;9.80;99.90
42245;DHT22;27912;51.828;5.688;2023-04-24T02:53:06;9.70;99.90
42245;DHT22;27912;51.828;5.688;2023-04-24T02:55:32;9.70;99.90
42245;DHT22;27912;51.828;5.688;2023-04-24T02:57:57;9.70;99.90
42245;DHT22;27912;51.828;5.688;2023-04-24T03:00:23;9.70;99.90
42245;DHT22;27912;51.828;5.688;2023-04-24T03:02:49;9.60;99.90
42245;DHT22;27912;51.828;5.688;2023-04-24T03:05:15;9.60;99.90
42245;DHT22;27912;51.828;5.688;2023-04-24T03:07:41;9.60;99.90
42245;DHT22;27912;51.828;5.688;2023-04-24T03:10:09;9.60;99.90
42245;DHT22;27912;51.828;5.688;2023-04-24T03:12:34;9.60;99.90
42245;DHT22;27912;51.828;5.688;2023-04-24T03:15:00;9.60;99.90
42245;DHT22;27912;51.828;5.688;2023-04-24T03:17:25;9.60;99.90
42245;DHT22;27912;51.828;5.688;2023-04-24T03:19:51;9.60;99.90
42245;DHT22;27912;51.828;5.688;2023-04-24T03:22:16;9.50;99.90
42245;DHT22;27912;51.828;5.688;2023-04-24T03:24:42;9.50;99.90
42245;DHT22;27912;51.828;5.688;2023-04-24T03:27:07;9.50;99.90
42245;DHT22;27912;51.828;5.688;2023-04-24T03:29:33;9.50;99.90
42245;DHT22;27912;51.828;5.688;2023-04-24T03:31:58;9.40;99.90
42245;DHT22;27912;51.828;5.688;2023-04-24T03:34:24;9.40;99.90
42245;DHT22;27912;51.828;5.688;2023-04-24T03:36:50;9.40;99.90
42245;DHT22;27912;51.828;5.688;2023-04-24T03:39:15;9.40;99.90
42245;DHT22;27912;51.828;5.688;2023-04-24T03:41:41;9.40;99.90
42245;DHT22;27912;51.828;5.688;2023-04-24T03:44:07;9.40;99.90
42245;DHT22;27912;51.828;5.688;2023-04-24T03:46:32;9.30;99.90
42245;DHT22;27912;51.828;5.688;2023-04-24T03:48:58;9.30;99.90
42245;DHT22;27912;51.828;5.688;2023-04-24T03:51:23;9.30;99.90
42245;DHT22;27912;51.828;5.688;2023-04-24T03:53:49;9.30;99.90
42245;DHT22;27912;51.828;5.688;2023-04-24T03:56:15;9.30;99.90
42245;DHT22;27912;51.828;5.688;2023-04-24T03:58:40;9.30;99.90
42245;DHT22;27912;51.828;5.688;2023-04-24T04:01:06;9.30;99.90
42245;DHT22;27912;51.828;5.688;2023-04-24T04:03:31;9.30;99.90
42245;DHT22;27912;51.828;5.688;2023-04-24T04:05:57;9.20;99.90
42245;DHT22;27912;51.828;5.688;2023-04-24T04:08:23;9.20;99.90
42245;DHT22;27912;51.828;5.688;2023-04-24T04:10:48;9.30;99.90
42245;DHT22;27912;51.828;5.688;2023-04-24T04:13:14;9.30;99.90
42245;DHT22;27912;51.828;5.688;2023-04-24T04:15:39;9.30;99.90
42245;DHT22;27912;51.828;5.688;2023-04-24T04:18:05;9.30;99.90
42245;DHT22;27912;51.828;5.688;2023-04-24T04:20:31;9.30;99.90
42245;DHT22;27912;51.828;5.688;2023-04-24T04:22:56;9.20;99.90
42245;DHT22;27912;51.828;5.688;2023-04-24T04:25:22;9.30;99.90
42245;DHT22;27912;51.828;5.688;2023-04-24T04:27:48;9.30;99.90
42245;DHT22;27912;51.828;5.688;2023-04-24T04:30:14;9.30;99.90
42245;DHT22;27912;51.828;5.688;2023-04-24T04:32:40;9.30;99.90
42245;DHT22;27912;51.828;5.688;2023-04-24T04:35:06;9.30;99.90
42245;DHT22;27912;51.828;5.688;2023-04-24T04:37:34;9.30;99.90
42245;DHT22;27912;51.828;5.688;2023-04-24T04:40:00;9.30;99.90
42245;DHT22;27912;51.828;5.688;2023-04-24T04:42:26;9.30;99.90
42245;DHT22;27912;51.828;5.688;2023-04-24T04:44:53;9.30;99.90
42245;DHT22;27912;51.828;5.688;2023-04-24T04:47:20;9.20;99.90
42245;DHT22;27912;51.828;5.688;2023-04-24T04:49:47;9.20;99.90
42245;DHT22;27912;51.828;5.688;2023-04-24T04:52:13;9.20;99.90
42245;DHT22;27912;51.828;5.688;2023-04-24T04:54:39;9.20;99.90
42245;DHT22;27912;51.828;5.688;2023-04-24T04:57:05;9.20;99.90
42245;DHT22;27912;51.828;5.688;2023-04-24T04:59:30;9.20;99.90
42245;DHT22;27912;51.828;5.688;2023-04-24T05:01:56;9.20;99.90
42245;DHT22;27912;51.828;5.688;2023-04-24T05:04:22;9.20;99.90
42245;DHT22;27912;51.828;5.688;2023-04-24T05:06:47;9.20;99.90
42245;DHT22;27912;51.828;5.688;2023-04-24T05:09:13;9.10;99.90
42245;DHT22;27912;51.828;5.688;2023-04-24T05:11:38;9.10;99.90
42245;DHT22;27912;51.828;5.688;2023-04-24T05:14:04;9.10;99.90
42245;DHT22;27912;51.828;5.688;2023-04-24T05:16:29;9.10;99.90
42245;DHT22;27912;51.828;5.688;2023-04-24T05:18:56;9.10;99.90
42245;DHT22;27912;51.828;5.688;2023-04-24T05:21:21;9.10;99.90
42245;DHT22;27912;51.828;5.688;2023-04-24T05:23:47;9.20;99.90
42245;DHT22;27912;51.828;5.688;2023-04-24T05:26:13;9.20;99.90
42245;DHT22;27912;51.828;5.688;2023-04-24T05:28:39;9.20;99.90
42245;DHT22;27912;51.828;5.688;2023-04-24T05:31:04;9.20;99.90
42245;DHT22;27912;51.828;5.688;2023-04-24T05:33:30;9.20;99.90
42245;DHT22;27912;51.828;5.688;2023-04-24T05:35:56;9.20;99.90
42245;DHT22;27912;51.828;5.688;2023-04-24T05:38:21;9.10;99.90
42245;DHT22;27912;51.828;5.688;2023-04-24T05:40:47;9.20;99.90
42245;DHT22;27912;51.828;5.688;2023-04-24T05:43:12;9.20;99.90
42245;DHT22;27912;51.828;5.688;2023-04-24T05:45:38;9.20;99.90
42245;DHT22;27912;51.828;5.688;2023-04-24T05:48:05;9.20;99.90
42245;DHT22;27912;51.828;5.688;2023-04-24T05:50:31;9.20;99.90
42245;DHT22;27912;51.828;5.688;2023-04-24T05:52:56;9.20;99.90
42245;DHT22;27912;51.828;5.688;2023-04-24T05:55:26;9.20;99.90
42245;DHT22;27912;51.828;5.688;2023-04-24T05:57:52;9.20;99.90
42245;DHT22;27912;51.828;5.688;2023-04-24T06:00:18;9.20;99.90
42245;DHT22;27912;51.828;5.688;2023-04-24T06:02:45;9.20;99.90
42245;DHT22;27912;51.828;5.688;2023-04-24T06:05:11;9.20;99.90
42245;DHT22;27912;51.828;5.688;2023-04-24T06:07:37;9.10;99.90
42245;DHT22;27912;51.828;5.688;2023-04-24T06:10:02;9.10;99.90
42245;DHT22;27912;51.828;5.688;2023-04-24T06:12:28;9.10;99.90
42245;DHT22;27912;51.828;5.688;2023-04-24T06:14:53;9.10;99.90
42245;DHT22;27912;51.828;5.688;2023-04-24T06:17:20;9.00;99.90
42245;DHT22;27912;51.828;5.688;2023-04-24T06:19:46;8.90;99.90
42245;DHT22;27912;51.828;5.688;2023-04-24T06:22:12;8.80;99.90
42245;DHT22;27912;51.828;5.688;2023-04-24T06:24:41;8.80;99.90
42245;DHT22;27912;51.828;5.688;2023-04-24T06:27:07;8.80;99.90
42245;DHT22;27912;51.828;5.688;2023-04-24T06:29:33;8.80;99.90
42245;DHT22;27912;51.828;5.688;2023-04-24T06:32:02;8.80;99.90
42245;DHT22;27912;51.828;5.688;2023-04-24T06:34:28;8.80;99.90
42245;DHT22;27912;51.828;5.688;2023-04-24T06:36:54;8.80;99.90
42245;DHT22;27912;51.828;5.688;2023-04-24T06:39:20;8.80;99.90
42245;DHT22;27912;51.828;5.688;2023-04-24T06:41:45;8.80;99.90
42245;DHT22;27912;51.828;5.688;2023-04-24T06:44:11;8.80;99.90
42245;DHT22;27912;51.828;5.688;2023-04-24T06:46:37;8.70;99.90
42245;DHT22;27912;51.828;5.688;2023-04-24T06:49:02;8.70;99.90
42245;DHT22;27912;51.828;5.688;2023-04-24T06:51:28;8.60;99.90
42245;DHT22;27912;51.828;5.688;2023-04-24T06:53:54;8.50;99.90
42245;DHT22;27912;51.828;5.688;2023-04-24T06:56:21;8.50;99.90
42245;DHT22;27912;51.828;5.688;2023-04-24T06:58:47;8.40;99.90
42245;DHT22;27912;51.828;5.688;2023-04-24T07:01:12;8.40;99.90
42245;DHT22;27912;51.828;5.688;2023-04-24T07:03:38;8.30;99.90
42245;DHT22;27912;51.828;5.688;2023-04-24T07:06:04;8.30;99.90
42245;DHT22;27912;51.828;5.688;2023-04-24T07:08:30;8.30;99.90
42245;DHT22;27912;51.828;5.688;2023-04-24T07:10:56;8.30;99.90
42245;DHT22;27912;51.828;5.688;2023-04-24T07:13:22;8.40;99.90
42245;DHT22;27912;51.828;5.688;2023-04-24T07:15:48;8.40;99.90
42245;DHT22;27912;51.828;5.688;2023-04-24T07:18:19;8.40;99.90
42245;DHT22;27912;51.828;5.688;2023-04-24T07:20:45;8.40;99.90
42245;DHT22;27912;51.828;5.688;2023-04-24T07:23:11;8.50;99.90
42245;DHT22;27912;51.828;5.688;2023-04-24T07:25:36;8.40;99.90
42245;DHT22;27912;51.828;5.688;2023-04-24T07:28:04;8.40;99.90
42245;DHT22;27912;51.828;5.688;2023-04-24T07:30:30;8.50;99.90
42245;DHT22;27912;51.828;5.688;2023-04-24T07:32:55;8.50;99.90
42245;DHT22;27912;51.828;5.688;2023-04-24T07:35:21;8.50;99.90
42245;DHT22;27912;51.828;5.688;2023-04-24T07:37:47;8.40;99.90
42245;DHT22;27912;51.828;5.688;2023-04-24T07:40:13;8.40;99.90
42245;DHT22;27912;51.828;5.688;2023-04-24T07:42:39;8.40;99.90
42245;DHT22;27912;51.828;5.688;2023-04-24T07:45:05;8.40;99.90
42245;DHT22;27912;51.828;5.688;2023-04-24T07:47:31;8.30;99.90
42245;DHT22;27912;51.828;5.688;2023-04-24T07:49:58;8.20;99.90
42245;DHT22;27912;51.828;5.688;2023-04-24T07:52:24;8.20;99.90
42245;DHT22;27912;51.828;5.688;2023-04-24T07:54:50;8.10;99.90
42245;DHT22;27912;51.828;5.688;2023-04-24T07:57:18;8.20;99.90
42245;DHT22;27912;51.828;5.688;2023-04-24T07:59:43;8.20;99.90
42245;DHT22;27912;51.828;5.688;2023-04-24T08:02:09;8.10;99.90
42245;DHT22;27912;51.828;5.688;2023-04-24T08:04:35;8.10;99.90
42245;DHT22;27912;51.828;5.688;2023-04-24T08:07:00;8.10;99.90
42245;DHT22;27912;51.828;5.688;2023-04-24T08:09:26;8.10;99.90
42245;DHT22;27912;51.828;5.688;2023-04-24T08:11:51;8.10;99.90
42245;DHT22;27912;51.828;5.688;2023-04-24T08:14:18;8.10;99.90
42245;DHT22;27912;51.828;5.688;2023-04-24T08:16:44;8.10;99.90
42245;DHT22;27912;51.828;5.688;2023-04-24T08:19:10;8.10;99.90
42245;DHT22;27912;51.828;5.688;2023-04-24T08:21:35;8.10;99.90
42245;DHT22;27912;51.828;5.688;2023-04-24T08:24:01;8.10;99.90
42245;DHT22;27912;51.828;5.688;2023-04-24T08:26:30;8.10;99.90
42245;DHT22;27912;51.828;5.688;2023-04-24T08:28:56;8.10;99.90
42245;DHT22;27912;51.828;5.688;2023-04-24T08:31:21;8.10;99.90
42245;DHT22;27912;51.828;5.688;2023-04-24T08:33:48;8.20;99.90
42245;DHT22;27912;51.828;5.688;2023-04-24T08:36:13;8.20;99.90
42245;DHT22;27912;51.828;5.688;2023-04-24T08:38:39;8.30;99.90
42245;DHT22;27912;51.828;5.688;2023-04-24T08:41:05;8.30;99.90
42245;DHT22;27912;51.828;5.688;2023-04-24T08:43:33;8.30;99.90
42245;DHT22;27912;51.828;5.688;2023-04-24T08:46:03;8.30;99.90
42245;DHT22;27912;51.828;5.688;2023-04-24T08:48:29;8.30;99.90
42245;DHT22;27912;51.828;5.688;2023-04-24T08:50:56;8.30;99.90
42245;DHT22;27912;51.828;5.688;2023-04-24T08:53:22;8.20;99.90
42245;DHT22;27912;51.828;5.688;2023-04-24T08:55:49;8.20;99.90
42245;DHT22;27912;51.828;5.688;2023-04-24T08:58:17;8.20;99.90
42245;DHT22;27912;51.828;5.688;2023-04-24T09:00:43;8.10;99.90
42245;DHT22;27912;51.828;5.688;2023-04-24T09:03:13;8.10;99.90
42245;DHT22;27912;51.828;5.688;2023-04-24T09:05:42;8.10;99.90
42245;DHT22;27912;51.828;5.688;2023-04-24T09:08:11;8.10;99.90
42245;DHT22;27912;51.828;5.688;2023-04-24T09:10:39;8.10;99.90
42245;DHT22;27912;51.828;5.688;2023-04-24T09:13:05;8.20;99.90
42245;DHT22;27912;51.828;5.688;2023-04-24T09:15:31;8.20;99.90
42245;DHT22;27912;51.828;5.688;2023-04-24T09:17:57;8.30;99.90
42245;DHT22;27912;51.828;5.688;2023-04-24T09:20:23;8.40;99.90
42245;DHT22;27912;51.828;5.688;2023-04-24T09:22:48;8.40;99.90
42245;DHT22;27912;51.828;5.688;2023-04-24T09:25:18;8.50;99.90
42245;DHT22;27912;51.828;5.688;2023-04-24T09:27:45;8.50;99.90
42245;DHT22;27912;51.828;5.688;2023-04-24T09:30:11;8.60;99.90
42245;DHT22;27912;51.828;5.688;2023-04-24T09:32:37;8.60;99.90
42245;DHT22;27912;51.828;5.688;2023-04-24T09:35:13;8.60;99.90
42245;DHT22;27912;51.828;5.688;2023-04-24T09:37:46;8.70;99.90
42245;DHT22;27912;51.828;5.688;2023-04-24T09:40:16;8.70;99.90
42245;DHT22;27912;51.828;5.688;2023-04-24T09:42:52;8.70;99.90
42245;DHT22;27912;51.828;5.688;2023-04-24T09:45:17;8.70;99.90
42245;DHT22;27912;51.828;5.688;2023-04-24T09:47:43;8.70;99.90
42245;DHT22;27912;51.828;5.688;2023-04-24T09:50:10;8.70;99.90
42245;DHT22;27912;51.828;5.688;2023-04-24T09:52:40;8.80;99.90
42245;DHT22;27912;51.828;5.688;2023-04-24T09:55:11;8.90;99.90
42245;DHT22;27912;51.828;5.688;2023-04-24T09:57:50;9.00;99.90
42245;DHT22;27912;51.828;5.688;2023-04-24T10:00:31;9.10;99.90
42245;DHT22;27912;51.828;5.688;2023-04-24T10:03:03;9.20;99.90
42245;DHT22;27912;51.828;5.688;2023-04-24T10:05:32;9.40;99.90
42245;DHT22;27912;51.828;5.688;2023-04-24T10:08:06;9.40;99.90
42245;DHT22;27912;51.828;5.688;2023-04-24T10:10:33;9.40;99.90
42245;DHT22;27912;51.828;5.688;2023-04-24T10:13:00;9.60;99.90
42245;DHT22;27912;51.828;5.688;2023-04-24T10:15:27;9.70;99.90
42245;DHT22;27912;51.828;5.688;2023-04-24T10:17:53;9.90;99.90
42245;DHT22;27912;51.828;5.688;2023-04-24T10:20:24;10.00;99.90
42245;DHT22;27912;51.828;5.688;2023-04-24T10:22:52;10.10;99.90
42245;DHT22;27912;51.828;5.688;2023-04-24T10:25:23;10.00;99.90
42245;DHT22;27912;51.828;5.688;2023-04-24T10:27:50;9.90;99.90
42245;DHT22;27912;51.828;5.688;2023-04-24T10:30:16;9.80;99.90
42245;DHT22;27912;51.828;5.688;2023-04-24T10:32:42;9.70;99.90
42245;DHT22;27912;51.828;5.688;2023-04-24T10:35:12;9.70;99.90
42245;DHT22;27912;51.828;5.688;2023-04-24T10:37:40;9.70;99.90
42245;DHT22;27912;51.828;5.688;2023-04-24T10:40:09;9.70;99.90
42245;DHT22;27912;51.828;5.688;2023-04-24T10:42:35;9.80;99.90
42245;DHT22;27912;51.828;5.688;2023-04-24T10:45:06;9.80;99.90
42245;DHT22;27912;51.828;5.688;2023-04-24T10:47:40;9.70;99.90
42245;DHT22;27912;51.828;5.688;2023-04-24T10:50:11;9.50;99.90
42245;DHT22;27912;51.828;5.688;2023-04-24T10:52:47;9.40;99.90
42245;DHT22;27912;51.828;5.688;2023-04-24T10:55:14;9.30;99.90
42245;DHT22;27912;51.828;5.688;2023-04-24T10:58:01;9.20;99.90
42245;DHT22;27912;51.828;5.688;2023-04-24T11:00:27;9.10;99.90
42245;DHT22;27912;51.828;5.688;2023-04-24T11:02:53;9.20;99.90
42245;DHT22;27912;51.828;5.688;2023-04-24T11:05:20;9.50;99.90
42245;DHT22;27912;51.828;5.688;2023-04-24T11:08:14;9.70;99.90
42245;DHT22;27912;51.828;5.688;2023-04-24T11:10:44;9.80;99.90
42245;DHT22;27912;51.828;5.688;2023-04-24T11:13:10;9.90;99.90
42245;DHT22;27912;51.828;5.688;2023-04-24T11:16:15;10.10;99.90
42245;DHT22;27912;51.828;5.688;2023-04-24T11:18:45;10.10;99.90
42245;DHT22;27912;51.828;5.688;2023-04-24T11:21:17;10.00;99.90
42245;DHT22;27912;51.828;5.688;2023-04-24T11:23:43;10.00;99.90
42245;DHT22;27912;51.828;5.688;2023-04-24T11:26:10;9.80;99.90
42245;DHT22;27912;51.828;5.688;2023-04-24T11:28:37;9.60;99.90
42245;DHT22;27912;51.828;5.688;2023-04-24T11:31:34;9.50;99.90
42245;DHT22;27912;51.828;5.688;2023-04-24T11:34:12;9.50;99.90
42245;DHT22;27912;51.828;5.688;2023-04-24T11:36:48;9.50;99.90
42245;DHT22;27912;51.828;5.688;2023-04-24T11:39:14;9.50;99.90
42245;DHT22;27912;51.828;5.688;2023-04-24T11:41:40;9.40;99.90
42245;DHT22;27912;51.828;5.688;2023-04-24T11:44:07;9.20;99.90
42245;DHT22;27912;51.828;5.688;2023-04-24T11:46:33;9.10;99.90
42245;DHT22;27912;51.828;5.688;2023-04-24T11:48:59;9.10;99.90
42245;DHT22;27912;51.828;5.688;2023-04-24T11:51:26;9.20;99.90
42245;DHT22;27912;51.828;5.688;2023-04-24T11:53:56;9.50;99.90
42245;DHT22;27912;51.828;5.688;2023-04-24T11:56:25;9.80;99.90
42245;DHT22;27912;51.828;5.688;2023-04-24T11:58:53;10.00;99.90
42245;DHT22;27912;51.828;5.688;2023-04-24T12:01:20;10.20;99.90
42245;DHT22;27912;51.828;5.688;2023-04-24T12:03:50;10.40;99.90
42245;DHT22;27912;51.828;5.688;2023-04-24T12:06:17;10.50;99.90
42245;DHT22;27912;51.828;5.688;2023-04-24T12:08:46;10.70;99.90
42245;DHT22;27912;51.828;5.688;2023-04-24T12:11:15;11.10;99.90
42245;DHT22;27912;51.828;5.688;2023-04-24T12:13:41;11.20;99.90
42245;DHT22;27912;51.828;5.688;2023-04-24T12:16:06;11.10;99.90
42245;DHT22;27912;51.828;5.688;2023-04-24T12:18:32;10.90;99.90
42245;DHT22;27912;51.828;5.688;2023-04-24T12:23:44;10.30;99.90
42245;DHT22;27912;51.828;5.688;2023-04-24T12:26:10;10.10;99.90
42245;DHT22;27912;51.828;5.688;2023-04-24T12:28:37;9.90;99.90
42245;DHT22;27912;51.828;5.688;2023-04-24T12:31:03;9.60;99.90
42245;DHT22;27912;51.828;5.688;2023-04-24T12:33:33;9.40;99.90
42245;DHT22;27912;51.828;5.688;2023-04-24T12:35:59;9.30;99.90
42245;DHT22;27912;51.828;5.688;2023-04-24T12:38:27;9.20;99.90
42245;DHT22;27912;51.828;5.688;2023-04-24T12:41:06;9.20;99.90
42245;DHT22;27912;51.828;5.688;2023-04-24T12:43:32;9.30;99.90
42245;DHT22;27912;51.828;5.688;2023-04-24T12:45:58;9.50;99.90
42245;DHT22;27912;51.828;5.688;2023-04-24T12:48:25;9.70;99.90
42245;DHT22;27912;51.828;5.688;2023-04-24T12:50:51;10.10;99.90
42245;DHT22;27912;51.828;5.688;2023-04-24T12:53:16;10.50;99.90
42245;DHT22;27912;51.828;5.688;2023-04-24T12:55:42;10.90;99.90
42245;DHT22;27912;51.828;5.688;2023-04-24T12:58:08;11.10;99.90
42245;DHT22;27912;51.828;5.688;2023-04-24T13:00:33;11.10;99.90
42245;DHT22;27912;51.828;5.688;2023-04-24T13:02:59;10.60;99.90
42245;DHT22;27912;51.828;5.688;2023-04-24T13:05:24;10.10;99.90
42245;DHT22;27912;51.828;5.688;2023-04-24T13:07:50;9.70;99.90
42245;DHT22;27912;51.828;5.688;2023-04-24T13:10:16;9.50;99.90
42245;DHT22;27912;51.828;5.688;2023-04-24T13:12:41;9.50;99.90
42245;DHT22;27912;51.828;5.688;2023-04-24T13:15:10;9.70;99.90
42245;DHT22;27912;51.828;5.688;2023-04-24T13:17:36;9.80;99.90
42245;DHT22;27912;51.828;5.688;2023-04-24T13:20:02;9.90;99.90
42245;DHT22;27912;51.828;5.688;2023-04-24T13:22:28;10.00;99.90
42245;DHT22;27912;51.828;5.688;2023-04-24T13:24:53;10.10;99.90
42245;DHT22;27912;51.828;5.688;2023-04-24T13:27:20;10.30;99.90
42245;DHT22;27912;51.828;5.688;2023-04-24T13:29:46;10.50;99.90
42245;DHT22;27912;51.828;5.688;2023-04-24T13:32:11;10.90;99.90
42245;DHT22;27912;51.828;5.688;2023-04-24T13:34:37;11.20;99.90
42245;DHT22;27912;51.828;5.688;2023-04-24T13:37:03;11.20;99.90
42245;DHT22;27912;51.828;5.688;2023-04-24T13:39:30;11.20;99.90
42245;DHT22;27912;51.828;5.688;2023-04-24T13:41:55;11.20;99.90
42245;DHT22;27912;51.828;5.688;2023-04-24T13:44:22;11.10;99.90
42245;DHT22;27912;51.828;5.688;2023-04-24T13:46:49;10.90;99.90
42245;DHT22;27912;51.828;5.688;2023-04-24T13:49:16;10.80;99.90
42245;DHT22;27912;51.828;5.688;2023-04-24T13:51:42;10.60;99.90
42245;DHT22;27912;51.828;5.688;2023-04-24T13:54:08;10.20;99.90
42245;DHT22;27912;51.828;5.688;2023-04-24T13:56:33;9.90;99.90
42245;DHT22;27912;51.828;5.688;2023-04-24T13:58:59;9.60;99.90
42245;DHT22;27912;51.828;5.688;2023-04-24T14:01:25;9.40;99.90
42245;DHT22;27912;51.828;5.688;2023-04-24T14:03:51;9.40;99.90
42245;DHT22;27912;51.828;5.688;2023-04-24T14:06:18;9.50;99.90
42245;DHT22;27912;51.828;5.688;2023-04-24T14:08:44;9.70;99.90
42245;DHT22;27912;51.828;5.688;2023-04-24T14:11:10;9.80;99.90
42245;DHT22;27912;51.828;5.688;2023-04-24T14:13:36;9.90;99.90
42245;DHT22;27912;51.828;5.688;2023-04-24T14:16:03;9.80;99.90
42245;DHT22;27912;51.828;5.688;2023-04-24T14:18:29;9.80;99.90
42245;DHT22;27912;51.828;5.688;2023-04-24T14:20:54;9.90;99.90
42245;DHT22;27912;51.828;5.688;2023-04-24T14:23:22;10.00;99.90
42245;DHT22;27912;51.828;5.688;2023-04-24T14:25:48;10.10;99.90
42245;DHT22;27912;51.828;5.688;2023-04-24T14:28:17;10.30;99.90
42245;DHT22;27912;51.828;5.688;2023-04-24T14:30:43;10.50;99.90
42245;DHT22;27912;51.828;5.688;2023-04-24T14:33:08;10.70;99.90
42245;DHT22;27912;51.828;5.688;2023-04-24T14:35:34;10.90;99.90
42245;DHT22;27912;51.828;5.688;2023-04-24T14:38:00;11.00;99.90
42245;DHT22;27912;51.828;5.688;2023-04-24T14:40:26;11.10;99.90
42245;DHT22;27912;51.828;5.688;2023-04-24T14:42:51;11.10;99.90
42245;DHT22;27912;51.828;5.688;2023-04-24T14:45:17;11.10;99.90
42245;DHT22;27912;51.828;5.688;2023-04-24T14:47:43;11.00;99.90
42245;DHT22;27912;51.828;5.688;2023-04-24T14:50:09;11.00;99.90
42245;DHT22;27912;51.828;5.688;2023-04-24T14:52:35;10.80;99.90
42245;DHT22;27912;51.828;5.688;2023-04-24T14:55:01;10.60;99.90
42245;DHT22;27912;51.828;5.688;2023-04-24T14:57:26;10.50;99.90
42245;DHT22;27912;51.828;5.688;2023-04-24T14:59:52;10.40;99.90
42245;DHT22;27912;51.828;5.688;2023-04-24T15:02:18;10.10;99.90
42245;DHT22;27912;51.828;5.688;2023-04-24T15:04:43;9.90;99.90
42245;DHT22;27912;51.828;5.688;2023-04-24T15:07:09;10.00;99.90
42245;DHT22;27912;51.828;5.688;2023-04-24T15:09:34;10.00;99.90
42245;DHT22;27912;51.828;5.688;2023-04-24T15:12:00;10.10;99.90
42245;DHT22;27912;51.828;5.688;2023-04-24T15:14:27;10.20;99.90
42245;DHT22;27912;51.828;5.688;2023-04-24T15:16:52;10.30;99.90
42245;DHT22;27912;51.828;5.688;2023-04-24T15:19:18;10.40;99.90
42245;DHT22;27912;51.828;5.688;2023-04-24T15:21:43;10.60;99.90
42245;DHT22;27912;51.828;5.688;2023-04-24T15:24:10;10.80;99.90
42245;DHT22;27912;51.828;5.688;2023-04-24T15:26:35;10.80;99.90
42245;DHT22;27912;51.828;5.688;2023-04-24T15:29:01;10.80;99.90
42245;DHT22;27912;51.828;5.688;2023-04-24T15:31:27;10.80;99.90
42245;DHT22;27912;51.828;5.688;2023-04-24T15:33:52;10.90;99.90
42245;DHT22;27912;51.828;5.688;2023-04-24T15:36:18;11.00;99.90
42245;DHT22;27912;51.828;5.688;2023-04-24T15:38:44;11.10;99.90
42245;DHT22;27912;51.828;5.688;2023-04-24T15:41:11;11.10;99.90